sensor_id;sensor_type;location;lat;lon;timestamp;P1;durP1;ratioP1;P2;durP2;ratioP2
76863;SDS011;65834;52.364;9.754;2023-11-19T00:00:54;2.33;;;1.10;;
76863;SDS011;65834;52.364;9.754;2023-11-19T00:03:27;1.63;;;1.30;;
76863;SDS011;65834;52.364;9.754;2023-11-19T00:05:56;3.83;;;1.20;;
76863;SDS011;65834;52.364;9.754;2023-11-19T00:08:26;2.23;;;1.30;;
76863;SDS011;65834;52.364;9.754;2023-11-19T00:10:56;2.13;;;1.47;;
76863;SDS011;65834;52.364;9.754;2023-11-19T00:13:25;1.90;;;1.10;;
76863;SDS011;65834;52.364;9.754;2023-11-19T00:15:55;2.17;;;1.20;;
76863;SDS011;65834;52.364;9.754;2023-11-19T00:18:28;3.10;;;1.50;;
76863;SDS011;65834;52.364;9.754;2023-11-19T00:20:59;2.53;;;1.10;;
76863;SDS011;65834;52.364;9.754;2023-11-19T00:23:29;3.30;;;1.30;;
76863;SDS011;65834;52.364;9.754;2023-11-19T00:25:59;3.17;;;1.30;;
76863;SDS011;65834;52.364;9.754;2023-11-19T00:28:28;2.53;;;1.40;;
76863;SDS011;65834;52.364;9.754;2023-11-19T00:30:58;2.13;;;1.20;;
76863;SDS011;65834;52.364;9.754;2023-11-19T00:33:32;2.73;;;1.40;;
76863;SDS011;65834;52.364;9.754;2023-11-19T00:36:15;2.10;;;1.13;;
76863;SDS011;65834;52.364;9.754;2023-11-19T00:38:45;4.53;;;1.33;;
76863;SDS011;65834;52.364;9.754;2023-11-19T00:41:15;2.87;;;1.67;;
76863;SDS011;65834;52.364;9.754;2023-11-19T00:43:45;1.90;;;1.10;;
76863;SDS011;65834;52.364;9.754;2023-11-19T00:46:15;2.73;;;1.37;;
76863;SDS011;65834;52.364;9.754;2023-11-19T00:48:47;3.53;;;1.40;;
76863;SDS011;65834;52.364;9.754;2023-11-19T00:51:17;2.08;;;1.20;;
76863;SDS011;65834;52.364;9.754;2023-11-19T00:53:47;2.00;;;1.10;;
76863;SDS011;65834;52.364;9.754;2023-11-19T00:56:16;3.17;;;1.60;;
76863;SDS011;65834;52.364;9.754;2023-11-19T00:58:46;2.77;;;1.20;;
76863;SDS011;65834;52.364;9.754;2023-11-19T01:01:16;2.53;;;1.27;;
76863;SDS011;65834;52.364;9.754;2023-11-19T01:03:48;2.60;;;1.17;;
76863;SDS011;65834;52.364;9.754;2023-11-19T01:06:26;3.35;;;1.23;;
76863;SDS011;65834;52.364;9.754;2023-11-19T01:08:56;2.00;;;1.27;;
76863;SDS011;65834;52.364;9.754;2023-11-19T01:11:27;3.00;;;1.20;;
76863;SDS011;65834;52.364;9.754;2023-11-19T01:13:57;2.00;;;1.20;;
76863;SDS011;65834;52.364;9.754;2023-11-19T01:16:27;2.63;;;1.27;;
76863;SDS011;65834;52.364;9.754;2023-11-19T01:19:00;2.03;;;1.37;;
76863;SDS011;65834;52.364;9.754;2023-11-19T01:21:43;2.47;;;1.10;;
76863;SDS011;65834;52.364;9.754;2023-11-19T01:24:13;2.57;;;1.30;;
76863;SDS011;65834;52.364;9.754;2023-11-19T01:26:43;3.43;;;1.30;;
76863;SDS011;65834;52.364;9.754;2023-11-19T01:29:13;1.20;;;1.07;;
76863;SDS011;65834;52.364;9.754;2023-11-19T01:31:43;1.77;;;1.07;;
76863;SDS011;65834;52.364;9.754;2023-11-19T01:34:17;1.83;;;1.27;;
76863;SDS011;65834;52.364;9.754;2023-11-19T01:36:47;1.88;;;1.00;;
76863;SDS011;65834;52.364;9.754;2023-11-19T01:39:17;1.93;;;0.90;;
76863;SDS011;65834;52.364;9.754;2023-11-19T01:41:47;1.93;;;0.90;;
76863;SDS011;65834;52.364;9.754;2023-11-19T01:44:17;1.27;;;0.83;;
76863;SDS011;65834;52.364;9.754;2023-11-19T01:46:46;2.13;;;1.10;;
76863;SDS011;65834;52.364;9.754;2023-11-19T01:49:20;0.70;;;0.70;;
76863;SDS011;65834;52.364;9.754;2023-11-19T01:51:50;1.45;;;1.10;;
76863;SDS011;65834;52.364;9.754;2023-11-19T01:54:19;3.63;;;1.00;;
76863;SDS011;65834;52.364;9.754;2023-11-19T01:56:50;2.77;;;1.03;;
76863;SDS011;65834;52.364;9.754;2023-11-19T01:59:23;2.70;;;1.00;;
76863;SDS011;65834;52.364;9.754;2023-11-19T02:01:54;1.30;;;0.80;;
76863;SDS011;65834;52.364;9.754;2023-11-19T02:04:29;1.23;;;0.90;;
76863;SDS011;65834;52.364;9.754;2023-11-19T02:06:59;2.08;;;1.10;;
76863;SDS011;65834;52.364;9.754;2023-11-19T02:09:29;0.73;;;0.60;;
76863;SDS011;65834;52.364;9.754;2023-11-19T02:11:59;1.90;;;0.83;;
76863;SDS011;65834;52.364;9.754;2023-11-19T02:14:29;1.13;;;0.87;;
76863;SDS011;65834;52.364;9.754;2023-11-19T02:16:59;2.73;;;0.80;;
76863;SDS011;65834;52.364;9.754;2023-11-19T02:19:31;1.40;;;0.80;;
76863;SDS011;65834;52.364;9.754;2023-11-19T02:22:01;1.20;;;0.80;;
76863;SDS011;65834;52.364;9.754;2023-11-19T02:24:30;1.23;;;0.80;;
76863;SDS011;65834;52.364;9.754;2023-11-19T02:27:02;0.80;;;0.70;;
76863;SDS011;65834;52.364;9.754;2023-11-19T02:29:42;2.07;;;0.80;;
76863;SDS011;65834;52.364;9.754;2023-11-19T02:32:12;0.77;;;0.63;;
76863;SDS011;65834;52.364;9.754;2023-11-19T02:34:42;2.30;;;0.70;;
76863;SDS011;65834;52.364;9.754;2023-11-19T02:37:12;1.80;;;0.73;;
76863;SDS011;65834;52.364;9.754;2023-11-19T02:39:41;1.77;;;0.60;;
76863;SDS011;65834;52.364;9.754;2023-11-19T02:42:11;2.03;;;0.60;;
76863;SDS011;65834;52.364;9.754;2023-11-19T02:44:45;0.57;;;0.43;;
76863;SDS011;65834;52.364;9.754;2023-11-19T02:47:15;0.60;;;0.47;;
76863;SDS011;65834;52.364;9.754;2023-11-19T02:49:48;0.67;;;0.67;;
76863;SDS011;65834;52.364;9.754;2023-11-19T02:52:19;0.53;;;0.53;;
76863;SDS011;65834;52.364;9.754;2023-11-19T02:54:49;1.17;;;0.50;;
76863;SDS011;65834;52.364;9.754;2023-11-19T02:57:19;1.47;;;0.50;;
76863;SDS011;65834;52.364;9.754;2023-11-19T02:59:51;0.53;;;0.50;;
76863;SDS011;65834;52.364;9.754;2023-11-19T03:02:22;0.30;;;0.30;;
76863;SDS011;65834;52.364;9.754;2023-11-19T03:05:00;0.57;;;0.57;;
76863;SDS011;65834;52.364;9.754;2023-11-19T03:07:31;1.10;;;0.63;;
76863;SDS011;65834;52.364;9.754;2023-11-19T03:10:01;1.07;;;0.80;;
76863;SDS011;65834;52.364;9.754;2023-11-19T03:12:32;1.17;;;0.80;;
76863;SDS011;65834;52.364;9.754;2023-11-19T03:15:05;2.47;;;1.33;;
76863;SDS011;65834;52.364;9.754;2023-11-19T03:17:36;1.57;;;0.77;;
76863;SDS011;65834;52.364;9.754;2023-11-19T03:20:08;2.47;;;1.00;;
76863;SDS011;65834;52.364;9.754;2023-11-19T03:22:41;4.63;;;1.20;;
76863;SDS011;65834;52.364;9.754;2023-11-19T03:25:11;1.80;;;1.07;;
76863;SDS011;65834;52.364;9.754;2023-11-19T03:27:41;2.90;;;1.10;;
76863;SDS011;65834;52.364;9.754;2023-11-19T03:30:13;4.53;;;1.40;;
76863;SDS011;65834;52.364;9.754;2023-11-19T03:32:44;1.73;;;0.67;;
76863;SDS011;65834;52.364;9.754;2023-11-19T03:35:14;1.27;;;0.80;;
76863;SDS011;65834;52.364;9.754;2023-11-19T03:37:44;1.73;;;0.87;;
76863;SDS011;65834;52.364;9.754;2023-11-19T03:40:14;1.20;;;0.60;;
76863;SDS011;65834;52.364;9.754;2023-11-19T03:42:45;1.73;;;1.00;;
76863;SDS011;65834;52.364;9.754;2023-11-19T03:45:17;1.20;;;0.67;;
76863;SDS011;65834;52.364;9.754;2023-11-19T03:47:47;1.90;;;0.80;;
76863;SDS011;65834;52.364;9.754;2023-11-19T03:50:17;2.13;;;1.20;;
76863;SDS011;65834;52.364;9.754;2023-11-19T03:52:47;0.93;;;0.80;;
76863;SDS011;65834;52.364;9.754;2023-11-19T03:55:16;1.30;;;0.83;;
76863;SDS011;65834;52.364;9.754;2023-11-19T03:57:46;0.93;;;0.80;;
76863;SDS011;65834;52.364;9.754;2023-11-19T04:00:19;2.80;;;0.90;;
76863;SDS011;65834;52.364;9.754;2023-11-19T04:02:49;1.13;;;0.90;;
76863;SDS011;65834;52.364;9.754;2023-11-19T04:05:19;2.80;;;0.80;;
76863;SDS011;65834;52.364;9.754;2023-11-19T04:07:48;1.43;;;1.10;;
76863;SDS011;65834;52.364;9.754;2023-11-19T04:10:18;1.13;;;0.87;;
76863;SDS011;65834;52.364;9.754;2023-11-19T04:12:49;1.43;;;0.93;;
76863;SDS011;65834;52.364;9.754;2023-11-19T04:15:21;2.67;;;1.17;;
76863;SDS011;65834;52.364;9.754;2023-11-19T04:17:51;2.38;;;1.30;;
76863;SDS011;65834;52.364;9.754;2023-11-19T04:20:21;2.83;;;1.47;;
76863;SDS011;65834;52.364;9.754;2023-11-19T04:22:51;3.80;;;1.30;;
76863;SDS011;65834;52.364;9.754;2023-11-19T04:25:21;3.27;;;1.30;;
76863;SDS011;65834;52.364;9.754;2023-11-19T04:27:52;3.13;;;1.60;;
76863;SDS011;65834;52.364;9.754;2023-11-19T04:30:24;2.90;;;1.53;;
76863;SDS011;65834;52.364;9.754;2023-11-19T04:32:54;3.67;;;1.80;;
76863;SDS011;65834;52.364;9.754;2023-11-19T04:35:24;4.43;;;1.70;;
76863;SDS011;65834;52.364;9.754;2023-11-19T04:37:53;2.83;;;1.57;;
76863;SDS011;65834;52.364;9.754;2023-11-19T04:40:23;5.40;;;1.90;;
76863;SDS011;65834;52.364;9.754;2023-11-19T04:42:53;6.30;;;2.30;;
76863;SDS011;65834;52.364;9.754;2023-11-19T04:45:25;5.07;;;2.30;;
76863;SDS011;65834;52.364;9.754;2023-11-19T04:47:55;4.95;;;2.13;;
76863;SDS011;65834;52.364;9.754;2023-11-19T04:50:25;7.40;;;2.13;;
76863;SDS011;65834;52.364;9.754;2023-11-19T04:52:55;3.87;;;1.70;;
76863;SDS011;65834;52.364;9.754;2023-11-19T04:55:26;5.43;;;2.13;;
76863;SDS011;65834;52.364;9.754;2023-11-19T04:57:56;6.60;;;2.27;;
76863;SDS011;65834;52.364;9.754;2023-11-19T05:00:28;6.30;;;2.23;;
76863;SDS011;65834;52.364;9.754;2023-11-19T05:02:58;7.53;;;2.38;;
76863;SDS011;65834;52.364;9.754;2023-11-19T05:05:28;7.43;;;2.97;;
76863;SDS011;65834;52.364;9.754;2023-11-19T05:07:57;7.03;;;2.80;;
76863;SDS011;65834;52.364;9.754;2023-11-19T05:10:27;8.17;;;2.87;;
76863;SDS011;65834;52.364;9.754;2023-11-19T05:12:57;9.93;;;3.10;;
76863;SDS011;65834;52.364;9.754;2023-11-19T05:15:29;9.70;;;3.73;;
76863;SDS011;65834;52.364;9.754;2023-11-19T05:17:59;8.20;;;3.38;;
76863;SDS011;65834;52.364;9.754;2023-11-19T05:20:31;9.87;;;3.47;;
76863;SDS011;65834;52.364;9.754;2023-11-19T05:23:01;8.87;;;3.30;;
76863;SDS011;65834;52.364;9.754;2023-11-19T05:25:30;10.90;;;3.97;;
76863;SDS011;65834;52.364;9.754;2023-11-19T05:28:00;8.53;;;3.60;;
76863;SDS011;65834;52.364;9.754;2023-11-19T05:30:32;10.40;;;3.67;;
76863;SDS011;65834;52.364;9.754;2023-11-19T05:33:02;11.38;;;3.97;;
76863;SDS011;65834;52.364;9.754;2023-11-19T05:35:32;11.93;;;3.80;;
76863;SDS011;65834;52.364;9.754;2023-11-19T05:38:01;11.83;;;3.90;;
76863;SDS011;65834;52.364;9.754;2023-11-19T05:40:32;10.00;;;3.77;;
76863;SDS011;65834;52.364;9.754;2023-11-19T05:43:02;9.93;;;3.60;;
76863;SDS011;65834;52.364;9.754;2023-11-19T05:45:34;9.30;;;4.23;;
76863;SDS011;65834;52.364;9.754;2023-11-19T05:48:04;9.48;;;3.58;;
76863;SDS011;65834;52.364;9.754;2023-11-19T05:50:35;12.83;;;4.37;;
76863;SDS011;65834;52.364;9.754;2023-11-19T05:53:04;10.13;;;3.97;;
76863;SDS011;65834;52.364;9.754;2023-11-19T05:55:36;9.93;;;4.20;;
76863;SDS011;65834;52.364;9.754;2023-11-19T05:58:12;13.07;;;4.43;;
76863;SDS011;65834;52.364;9.754;2023-11-19T06:00:45;12.93;;;4.83;;
76863;SDS011;65834;52.364;9.754;2023-11-19T06:03:17;11.73;;;5.10;;
76863;SDS011;65834;52.364;9.754;2023-11-19T06:05:48;11.60;;;5.00;;
76863;SDS011;65834;52.364;9.754;2023-11-19T06:08:18;12.77;;;5.07;;
76863;SDS011;65834;52.364;9.754;2023-11-19T06:10:47;12.03;;;5.03;;
76863;SDS011;65834;52.364;9.754;2023-11-19T06:13:17;11.23;;;5.23;;
76863;SDS011;65834;52.364;9.754;2023-11-19T06:15:53;12.17;;;4.53;;
76863;SDS011;65834;52.364;9.754;2023-11-19T06:18:23;11.98;;;5.10;;
76863;SDS011;65834;52.364;9.754;2023-11-19T06:20:53;12.33;;;5.07;;
76863;SDS011;65834;52.364;9.754;2023-11-19T06:23:22;13.00;;;5.43;;
76863;SDS011;65834;52.364;9.754;2023-11-19T06:25:52;14.20;;;5.50;;
76863;SDS011;65834;52.364;9.754;2023-11-19T06:28:21;12.60;;;4.63;;
76863;SDS011;65834;52.364;9.754;2023-11-19T06:30:54;12.60;;;5.57;;
76863;SDS011;65834;52.364;9.754;2023-11-19T06:33:24;13.43;;;5.40;;
76863;SDS011;65834;52.364;9.754;2023-11-19T06:35:54;14.17;;;5.10;;
76863;SDS011;65834;52.364;9.754;2023-11-19T06:38:23;12.83;;;5.10;;
76863;SDS011;65834;52.364;9.754;2023-11-19T06:40:53;14.80;;;5.07;;
76863;SDS011;65834;52.364;9.754;2023-11-19T06:43:23;10.07;;;4.63;;
76863;SDS011;65834;52.364;9.754;2023-11-19T06:45:55;14.90;;;4.60;;
76863;SDS011;65834;52.364;9.754;2023-11-19T06:48:24;12.15;;;4.60;;
76863;SDS011;65834;52.364;9.754;2023-11-19T06:50:54;15.40;;;4.93;;
76863;SDS011;65834;52.364;9.754;2023-11-19T06:53:23;12.13;;;4.00;;
76863;SDS011;65834;52.364;9.754;2023-11-19T06:55:54;15.20;;;4.43;;
76863;SDS011;65834;52.364;9.754;2023-11-19T06:58:24;12.03;;;4.73;;
76863;SDS011;65834;52.364;9.754;2023-11-19T07:00:56;11.63;;;4.00;;
76863;SDS011;65834;52.364;9.754;2023-11-19T07:03:26;11.63;;;4.20;;
76863;SDS011;65834;52.364;9.754;2023-11-19T07:05:56;12.00;;;4.20;;
76863;SDS011;65834;52.364;9.754;2023-11-19T07:08:25;17.37;;;4.70;;
76863;SDS011;65834;52.364;9.754;2023-11-19T07:10:55;13.63;;;4.43;;
76863;SDS011;65834;52.364;9.754;2023-11-19T07:13:25;21.00;;;4.60;;
76863;SDS011;65834;52.364;9.754;2023-11-19T07:15:58;15.07;;;4.13;;
76863;SDS011;65834;52.364;9.754;2023-11-19T07:18:27;15.20;;;4.20;;
76863;SDS011;65834;52.364;9.754;2023-11-19T07:20:58;15.00;;;4.00;;
76863;SDS011;65834;52.364;9.754;2023-11-19T07:23:29;12.10;;;3.80;;
76863;SDS011;65834;52.364;9.754;2023-11-19T07:25:59;14.27;;;4.07;;
76863;SDS011;65834;52.364;9.754;2023-11-19T07:28:29;14.27;;;3.80;;
76863;SDS011;65834;52.364;9.754;2023-11-19T07:31:01;14.63;;;4.13;;
76863;SDS011;65834;52.364;9.754;2023-11-19T07:33:31;12.60;;;3.67;;
76863;SDS011;65834;52.364;9.754;2023-11-19T07:36:00;15.67;;;4.00;;
76863;SDS011;65834;52.364;9.754;2023-11-19T07:38:30;16.83;;;3.80;;
76863;SDS011;65834;52.364;9.754;2023-11-19T07:41:00;13.47;;;3.53;;
76863;SDS011;65834;52.364;9.754;2023-11-19T07:43:30;14.80;;;3.93;;
76863;SDS011;65834;52.364;9.754;2023-11-19T07:46:02;13.33;;;3.07;;
76863;SDS011;65834;52.364;9.754;2023-11-19T07:48:34;14.00;;;3.57;;
76863;SDS011;65834;52.364;9.754;2023-11-19T07:51:04;15.97;;;3.73;;
76863;SDS011;65834;52.364;9.754;2023-11-19T07:53:34;14.20;;;2.90;;
76863;SDS011;65834;52.364;9.754;2023-11-19T07:56:05;15.17;;;2.60;;
76863;SDS011;65834;52.364;9.754;2023-11-19T07:58:35;14.50;;;3.40;;
76863;SDS011;65834;52.364;9.754;2023-11-19T08:01:08;15.60;;;3.50;;
76863;SDS011;65834;52.364;9.754;2023-11-19T08:03:38;11.20;;;3.17;;
76863;SDS011;65834;52.364;9.754;2023-11-19T08:06:24;13.40;;;3.17;;
76863;SDS011;65834;52.364;9.754;2023-11-19T08:08:54;20.23;;;3.60;;
76863;SDS011;65834;52.364;9.754;2023-11-19T08:11:23;18.00;;;3.13;;
76863;SDS011;65834;52.364;9.754;2023-11-19T08:13:53;17.87;;;3.43;;
76863;SDS011;65834;52.364;9.754;2023-11-19T08:16:25;14.70;;;2.90;;
76863;SDS011;65834;52.364;9.754;2023-11-19T08:18:55;13.13;;;3.00;;
76863;SDS011;65834;52.364;9.754;2023-11-19T08:21:25;18.47;;;2.97;;
76863;SDS011;65834;52.364;9.754;2023-11-19T08:23:55;12.87;;;4.07;;
76863;SDS011;65834;52.364;9.754;2023-11-19T08:26:24;17.10;;;3.20;;
76863;SDS011;65834;52.364;9.754;2023-11-19T08:28:54;13.30;;;3.33;;
76863;SDS011;65834;52.364;9.754;2023-11-19T08:31:27;18.03;;;3.13;;
76863;SDS011;65834;52.364;9.754;2023-11-19T08:33:56;14.85;;;3.15;;
76863;SDS011;65834;52.364;9.754;2023-11-19T08:36:26;15.53;;;4.67;;
76863;SDS011;65834;52.364;9.754;2023-11-19T08:38:58;15.25;;;3.38;;
76863;SDS011;65834;52.364;9.754;2023-11-19T08:41:27;16.97;;;3.80;;
76863;SDS011;65834;52.364;9.754;2023-11-19T08:43:57;14.67;;;2.87;;
76863;SDS011;65834;52.364;9.754;2023-11-19T08:46:29;17.57;;;3.70;;
76863;SDS011;65834;52.364;9.754;2023-11-19T08:48:59;17.13;;;3.80;;
76863;SDS011;65834;52.364;9.754;2023-11-19T08:51:29;19.37;;;3.93;;
76863;SDS011;65834;52.364;9.754;2023-11-19T08:53:59;17.60;;;3.53;;
76863;SDS011;65834;52.364;9.754;2023-11-19T08:56:29;16.10;;;4.00;;
76863;SDS011;65834;52.364;9.754;2023-11-19T08:59:01;16.48;;;4.00;;
76863;SDS011;65834;52.364;9.754;2023-11-19T09:01:33;17.23;;;3.70;;
76863;SDS011;65834;52.364;9.754;2023-11-19T09:04:03;17.23;;;3.50;;
76863;SDS011;65834;52.364;9.754;2023-11-19T09:06:35;12.03;;;3.63;;
76863;SDS011;65834;52.364;9.754;2023-11-19T09:09:05;14.30;;;3.27;;
76863;SDS011;65834;52.364;9.754;2023-11-19T09:11:34;19.13;;;4.23;;
76863;SDS011;65834;52.364;9.754;2023-11-19T09:14:04;19.87;;;3.77;;
76863;SDS011;65834;52.364;9.754;2023-11-19T09:16:37;17.23;;;3.50;;
76863;SDS011;65834;52.364;9.754;2023-11-19T09:19:06;17.10;;;3.20;;
76863;SDS011;65834;52.364;9.754;2023-11-19T09:21:36;15.93;;;3.70;;
76863;SDS011;65834;52.364;9.754;2023-11-19T09:24:06;16.53;;;4.33;;
76863;SDS011;65834;52.364;9.754;2023-11-19T09:26:38;20.50;;;4.30;;
76863;SDS011;65834;52.364;9.754;2023-11-19T09:29:08;20.33;;;4.60;;
76863;SDS011;65834;52.364;9.754;2023-11-19T09:31:40;16.83;;;3.53;;
76863;SDS011;65834;52.364;9.754;2023-11-19T09:34:10;18.08;;;3.85;;
76863;SDS011;65834;52.364;9.754;2023-11-19T09:36:40;18.37;;;4.07;;
76863;SDS011;65834;52.364;9.754;2023-11-19T09:39:10;19.13;;;4.20;;
76863;SDS011;65834;52.364;9.754;2023-11-19T09:41:41;16.67;;;4.07;;
76863;SDS011;65834;52.364;9.754;2023-11-19T09:44:11;18.93;;;4.17;;
76863;SDS011;65834;52.364;9.754;2023-11-19T09:46:47;15.80;;;4.13;;
76863;SDS011;65834;52.364;9.754;2023-11-19T09:49:18;17.10;;;3.87;;
76863;SDS011;65834;52.364;9.754;2023-11-19T09:51:53;12.87;;;3.47;;
76863;SDS011;65834;52.364;9.754;2023-11-19T09:54:23;18.87;;;3.60;;
76863;SDS011;65834;52.364;9.754;2023-11-19T09:56:53;18.30;;;3.43;;
76863;SDS011;65834;52.364;9.754;2023-11-19T09:59:27;19.40;;;4.20;;
76863;SDS011;65834;52.364;9.754;2023-11-19T10:02:00;17.63;;;3.93;;
76863;SDS011;65834;52.364;9.754;2023-11-19T10:04:33;19.90;;;3.57;;
76863;SDS011;65834;52.364;9.754;2023-11-19T10:07:05;18.55;;;3.92;;
76863;SDS011;65834;52.364;9.754;2023-11-19T10:09:34;23.43;;;4.80;;
76863;SDS011;65834;52.364;9.754;2023-11-19T10:12:04;17.40;;;4.53;;
76863;SDS011;65834;52.364;9.754;2023-11-19T10:14:34;18.33;;;4.40;;
76863;SDS011;65834;52.364;9.754;2023-11-19T10:19:39;21.07;;;3.87;;
76863;SDS011;65834;52.364;9.754;2023-11-19T10:22:09;18.25;;;3.40;;
76863;SDS011;65834;52.364;9.754;2023-11-19T10:24:41;16.52;;;2.85;;
76863;SDS011;65834;52.364;9.754;2023-11-19T10:27:17;19.57;;;4.33;;
76863;SDS011;65834;52.364;9.754;2023-11-19T10:29:46;17.37;;;3.53;;
76863;SDS011;65834;52.364;9.754;2023-11-19T10:32:19;16.40;;;3.33;;
76863;SDS011;65834;52.364;9.754;2023-11-19T10:35:01;20.37;;;3.57;;
76863;SDS011;65834;52.364;9.754;2023-11-19T10:37:34;18.47;;;3.23;;
76863;SDS011;65834;52.364;9.754;2023-11-19T10:40:05;18.90;;;3.60;;
76863;SDS011;65834;52.364;9.754;2023-11-19T10:45:14;17.10;;;3.07;;
76863;SDS011;65834;52.364;9.754;2023-11-19T10:47:54;14.83;;;3.27;;
76863;SDS011;65834;52.364;9.754;2023-11-19T10:50:24;15.20;;;3.17;;
76863;SDS011;65834;52.364;9.754;2023-11-19T10:52:56;15.43;;;3.50;;
76863;SDS011;65834;52.364;9.754;2023-11-19T10:55:27;13.70;;;2.73;;
76863;SDS011;65834;52.364;9.754;2023-11-19T10:57:58;17.63;;;4.17;;
76863;SDS011;65834;52.364;9.754;2023-11-19T11:00:30;15.23;;;3.17;;
76863;SDS011;65834;52.364;9.754;2023-11-19T11:03:11;13.90;;;2.90;;
76863;SDS011;65834;52.364;9.754;2023-11-19T11:05:46;16.83;;;3.30;;
76863;SDS011;65834;52.364;9.754;2023-11-19T11:08:17;17.87;;;3.40;;
76863;SDS011;65834;52.364;9.754;2023-11-19T11:10:51;13.90;;;3.47;;
76863;SDS011;65834;52.364;9.754;2023-11-19T11:13:24;20.00;;;3.50;;
76863;SDS011;65834;52.364;9.754;2023-11-19T11:15:56;18.35;;;3.47;;
76863;SDS011;65834;52.364;9.754;2023-11-19T11:18:30;23.15;;;3.95;;
76863;SDS011;65834;52.364;9.754;2023-11-19T11:21:00;17.23;;;3.47;;
76863;SDS011;65834;52.364;9.754;2023-11-19T11:23:37;13.40;;;2.70;;
76863;SDS011;65834;52.364;9.754;2023-11-19T11:26:24;16.40;;;3.33;;
76863;SDS011;65834;52.364;9.754;2023-11-19T11:29:04;19.53;;;4.73;;
76863;SDS011;65834;52.364;9.754;2023-11-19T11:31:42;16.03;;;3.50;;
76863;SDS011;65834;52.364;9.754;2023-11-19T11:34:27;14.03;;;3.47;;
76863;SDS011;65834;52.364;9.754;2023-11-19T11:37:16;13.00;;;3.28;;
76863;SDS011;65834;52.364;9.754;2023-11-19T11:39:50;15.02;;;3.08;;
76863;SDS011;65834;52.364;9.754;2023-11-19T11:42:31;15.30;;;3.27;;
76863;SDS011;65834;52.364;9.754;2023-11-19T11:45:04;18.10;;;3.60;;
76863;SDS011;65834;52.364;9.754;2023-11-19T11:50:52;19.90;;;3.57;;
76863;SDS011;65834;52.364;9.754;2023-11-19T11:53:24;16.08;;;2.90;;
76863;SDS011;65834;52.364;9.754;2023-11-19T11:55:55;16.63;;;3.40;;
76863;SDS011;65834;52.364;9.754;2023-11-19T11:58:30;19.13;;;3.65;;
76863;SDS011;65834;52.364;9.754;2023-11-19T12:01:05;16.55;;;3.47;;
76863;SDS011;65834;52.364;9.754;2023-11-19T12:03:36;17.25;;;3.40;;
76863;SDS011;65834;52.364;9.754;2023-11-19T12:06:09;20.73;;;3.70;;
76863;SDS011;65834;52.364;9.754;2023-11-19T12:08:40;17.33;;;3.80;;
76863;SDS011;65834;52.364;9.754;2023-11-19T12:11:13;14.55;;;3.15;;
76863;SDS011;65834;52.364;9.754;2023-11-19T12:13:46;19.33;;;3.38;;
76863;SDS011;65834;52.364;9.754;2023-11-19T12:16:22;18.60;;;4.32;;
76863;SDS011;65834;52.364;9.754;2023-11-19T12:18:54;14.10;;;3.30;;
76863;SDS011;65834;52.364;9.754;2023-11-19T12:21:30;18.42;;;3.42;;
76863;SDS011;65834;52.364;9.754;2023-11-19T12:24:04;19.63;;;4.18;;
76863;SDS011;65834;52.364;9.754;2023-11-19T12:26:38;16.98;;;4.65;;
76863;SDS011;65834;52.364;9.754;2023-11-19T12:29:09;14.68;;;3.97;;
76863;SDS011;65834;52.364;9.754;2023-11-19T12:31:38;19.55;;;3.20;;
76863;SDS011;65834;52.364;9.754;2023-11-19T12:34:14;17.80;;;3.25;;
76863;SDS011;65834;52.364;9.754;2023-11-19T12:36:46;22.20;;;4.97;;
76863;SDS011;65834;52.364;9.754;2023-11-19T12:39:15;18.83;;;3.75;;
76863;SDS011;65834;52.364;9.754;2023-11-19T12:41:49;20.15;;;4.05;;
76863;SDS011;65834;52.364;9.754;2023-11-19T12:44:18;15.45;;;3.85;;
76863;SDS011;65834;52.364;9.754;2023-11-19T12:46:58;15.07;;;3.17;;
76863;SDS011;65834;52.364;9.754;2023-11-19T12:49:29;23.10;;;6.55;;
76863;SDS011;65834;52.364;9.754;2023-11-19T12:54:40;15.20;;;3.58;;
76863;SDS011;65834;52.364;9.754;2023-11-19T12:57:10;18.58;;;3.90;;
76863;SDS011;65834;52.364;9.754;2023-11-19T12:59:39;16.90;;;3.63;;
76863;SDS011;65834;52.364;9.754;2023-11-19T13:02:09;19.02;;;4.13;;
76863;SDS011;65834;52.364;9.754;2023-11-19T13:04:39;15.65;;;3.30;;
76863;SDS011;65834;52.364;9.754;2023-11-19T13:07:12;15.10;;;3.45;;
76863;SDS011;65834;52.364;9.754;2023-11-19T13:09:41;15.57;;;3.17;;
76863;SDS011;65834;52.364;9.754;2023-11-19T13:12:12;16.98;;;3.58;;
76863;SDS011;65834;52.364;9.754;2023-11-19T13:14:43;20.73;;;3.50;;
76863;SDS011;65834;52.364;9.754;2023-11-19T13:17:14;15.00;;;3.27;;
76863;SDS011;65834;52.364;9.754;2023-11-19T13:19:46;14.87;;;2.70;;
76863;SDS011;65834;52.364;9.754;2023-11-19T13:22:20;13.07;;;3.15;;
76863;SDS011;65834;52.364;9.754;2023-11-19T13:24:49;16.35;;;4.10;;
76863;SDS011;65834;52.364;9.754;2023-11-19T13:27:19;15.80;;;3.55;;
76863;SDS011;65834;52.364;9.754;2023-11-19T13:29:49;16.55;;;3.28;;
76863;SDS011;65834;52.364;9.754;2023-11-19T13:32:18;17.77;;;4.00;;
76863;SDS011;65834;52.364;9.754;2023-11-19T13:34:48;15.97;;;3.67;;
76863;SDS011;65834;52.364;9.754;2023-11-19T13:37:20;20.03;;;4.00;;
76863;SDS011;65834;52.364;9.754;2023-11-19T13:42:20;16.23;;;4.03;;
76863;SDS011;65834;52.364;9.754;2023-11-19T13:44:49;16.20;;;3.40;;
76863;SDS011;65834;52.364;9.754;2023-11-19T13:47:19;17.13;;;2.93;;
76863;SDS011;65834;52.364;9.754;2023-11-19T13:49:50;19.83;;;3.88;;
76863;SDS011;65834;52.364;9.754;2023-11-19T13:52:22;16.70;;;3.87;;
76863;SDS011;65834;52.364;9.754;2023-11-19T13:54:52;19.95;;;3.67;;
76863;SDS011;65834;52.364;9.754;2023-11-19T13:57:22;18.00;;;3.30;;
76863;SDS011;65834;52.364;9.754;2023-11-19T13:59:51;16.97;;;3.43;;
76863;SDS011;65834;52.364;9.754;2023-11-19T14:02:21;18.60;;;4.13;;
76863;SDS011;65834;52.364;9.754;2023-11-19T14:04:51;15.27;;;3.37;;
76863;SDS011;65834;52.364;9.754;2023-11-19T14:07:23;15.40;;;3.10;;
76863;SDS011;65834;52.364;9.754;2023-11-19T14:09:54;17.40;;;3.20;;
76863;SDS011;65834;52.364;9.754;2023-11-19T14:12:23;14.80;;;3.40;;
76863;SDS011;65834;52.364;9.754;2023-11-19T14:14:53;19.93;;;3.93;;
76863;SDS011;65834;52.364;9.754;2023-11-19T14:17:23;19.53;;;4.10;;
76863;SDS011;65834;52.364;9.754;2023-11-19T14:19:53;17.90;;;3.97;;
76863;SDS011;65834;52.364;9.754;2023-11-19T14:22:26;19.93;;;3.90;;
76863;SDS011;65834;52.364;9.754;2023-11-19T14:24:57;15.00;;;3.30;;
76863;SDS011;65834;52.364;9.754;2023-11-19T14:27:33;13.75;;;3.00;;
76863;SDS011;65834;52.364;9.754;2023-11-19T14:30:04;18.03;;;3.83;;
76863;SDS011;65834;52.364;9.754;2023-11-19T14:32:35;19.63;;;4.05;;
76863;SDS011;65834;52.364;9.754;2023-11-19T14:35:06;15.93;;;3.07;;
76863;SDS011;65834;52.364;9.754;2023-11-19T14:37:39;18.87;;;3.37;;
76863;SDS011;65834;52.364;9.754;2023-11-19T14:40:09;13.50;;;3.10;;
76863;SDS011;65834;52.364;9.754;2023-11-19T14:42:39;15.57;;;3.20;;
76863;SDS011;65834;52.364;9.754;2023-11-19T14:45:09;13.37;;;3.57;;
76863;SDS011;65834;52.364;9.754;2023-11-19T14:47:39;14.67;;;3.23;;
76863;SDS011;65834;52.364;9.754;2023-11-19T14:50:09;17.17;;;3.30;;
76863;SDS011;65834;52.364;9.754;2023-11-19T14:52:41;17.43;;;3.20;;
76863;SDS011;65834;52.364;9.754;2023-11-19T14:55:11;15.27;;;3.00;;
76863;SDS011;65834;52.364;9.754;2023-11-19T14:57:40;18.50;;;3.50;;
76863;SDS011;65834;52.364;9.754;2023-11-19T15:00:26;18.30;;;3.93;;
76863;SDS011;65834;52.364;9.754;2023-11-19T15:02:56;18.30;;;3.92;;
76863;SDS011;65834;52.364;9.754;2023-11-19T15:05:26;19.07;;;3.40;;
76863;SDS011;65834;52.364;9.754;2023-11-19T15:07:58;15.20;;;3.25;;
76863;SDS011;65834;52.364;9.754;2023-11-19T15:10:29;15.77;;;2.97;;
76863;SDS011;65834;52.364;9.754;2023-11-19T15:12:59;18.13;;;4.23;;
76863;SDS011;65834;52.364;9.754;2023-11-19T15:15:29;14.97;;;3.77;;